Time;durP1;ratioP1;P1;durP2;ratioP2;P2;SDS_P1;SDS_P2;PMS_P1;PMS_P2;Temp;Humidity;BMP_temperature;BMP_pressure;BME280_temperature;BME280_humidity;BME280_pressure;Samples;Min_cycle;Max_cycle;Signal;HPM_P1;HPM_P2
2022/07/01 00:00:48;;;;;;;7.68;6.45;;;;;;;;;;6166609;28;20356;-74
2022/07/01 00:04:09;;;;;;;5.35;4.45;;;;;;;;;;6171830;28;20250;-75
2022/07/01 00:07:31;;;;;;;4.25;2.80;;;;;;;;;;6165929;28;21950;-73
2022/07/01 00:10:52;;;;;;;3.30;2.22;;;;;;;;;;6172949;28;20695;-73
2022/07/01 00:14:13;;;;;;;2.33;2.13;;;;;;;;;;6175716;28;20620;-72
2022/07/01 00:17:33;;;;;;;2.75;1.73;;;;;;;;;;6167049;28;20233;-74
2022/07/01 00:20:54;;;;;;;1.75;1.65;;;;;;;;;;6171769;28;20242;-74
2022/07/01 00:24:16;;;;;;;6.22;2.08;;;;;;;;;;6171491;28;20231;-74
2022/07/01 00:27:38;;;;;;;2.45;2.15;;;;;;;;;;6170855;28;20249;-73
2022/07/01 00:30:58;;;;;;;2.53;2.33;;;;;;;;;;6175519;28;20226;-73
2022/07/01 00:34:19;;;;;;;4.75;2.60;;;;;;;;;;6169955;28;20238;-73
2022/07/01 00:37:40;;;;;;;2.25;2.05;;;;;;;;;;6170982;28;20229;-73
2022/07/01 00:41:02;;;;;;;1.90;1.80;;;;;;;;;;6146258;28;20595;-74
2022/07/01 00:44:23;;;;;;;5.50;2.70;;;;;;;;;;6173672;28;20241;-74
2022/07/01 00:47:44;;;;;;;4.32;3.25;;;;;;;;;;6169725;28;20246;-73
2022/07/01 00:51:05;;;;;;;5.43;3.55;;;;;;;;;;6164547;28;20619;-73
2022/07/01 00:54:27;;;;;;;4.45;3.30;;;;;;;;;;6171441;28;20627;-73
2022/07/01 00:57:49;;;;;;;5.93;3.78;;;;;;;;;;6176666;28;20221;-72
2022/07/01 01:01:10;;;;;;;6.40;4.07;;;;;;;;;;6169131;28;20683;-74
2022/07/01 01:04:30;;;;;;;5.05;4.55;;;;;;;;;;6171349;28;20225;-73
2022/07/01 01:07:51;;;;;;;6.07;3.95;;;;;;;;;;6174415;28;20323;-74
2022/07/01 01:11:13;;;;;;;5.55;5.03;;;;;;;;;;6179000;28;20237;-72
2022/07/01 01:14:45;;;;;;;7.10;4.68;;;;;;;;;;6178262;28;20713;-72
2022/07/01 01:18:07;;;;;;;6.80;4.28;;;;;;;;;;6174955;28;20559;-73
2022/07/01 01:21:29;;;;;;;5.13;3.45;;;;;;;;;;6177459;28;20706;-74
2022/07/01 01:24:50;;;;;;;7.32;4.10;;;;;;;;;;6177612;28;20237;-74
2022/07/01 01:28:11;;;;;;;3.55;3.25;;;;;;;;;;6178640;28;20230;-73
2022/07/01 01:31:33;;;;;;;4.00;3.53;;;;;;;;;;6176063;28;22564;-73
2022/07/01 01:34:53;;;;;;;3.67;3.15;;;;;;;;;;6177073;28;20456;-73
2022/07/01 01:38:16;;;;;;;6.70;4.28;;;;;;;;;;6179852;28;20610;-73
2022/07/01 01:41:37;;;;;;;4.45;3.78;;;;;;;;;;6173925;28;20230;-72
2022/07/01 01:44:57;;;;;;;4.95;4.55;;;;;;;;;;6147910;28;20241;-73
2022/07/01 01:48:18;;;;;;;5.88;3.70;;;;;;;;;;6168978;28;20269;-74
2022/07/01 01:51:39;;;;;;;4.50;4.10;;;;;;;;;;6173046;28;20344;-74
2022/07/01 01:55:00;;;;;;;5.65;4.65;;;;;;;;;;6165617;28;20775;-73
2022/07/01 01:58:21;;;;;;;4.00;3.53;;;;;;;;;;6172033;28;20237;-75
2022/07/01 02:01:45;;;;;;;4.05;3.67;;;;;;;;;;6174198;28;20253;-74
2022/07/01 02:05:07;;;;;;;4.32;3.92;;;;;;;;;;6175964;28;20632;-74
2022/07/01 02:08:28;;;;;;;3.70;3.40;;;;;;;;;;6173125;28;20612;-75
2022/07/01 02:11:50;;;;;;;4.88;4.22;;;;;;;;;;6173818;28;20245;-74
2022/07/01 02:15:11;;;;;;;4.50;4.10;;;;;;;;;;6177437;28;20222;-75
2022/07/01 02:18:32;;;;;;;4.90;4.40;;;;;;;;;;6171595;28;20241;-75
2022/07/01 02:21:53;;;;;;;5.32;4.82;;;;;;;;;;6176967;28;20513;-74
2022/07/01 02:25:13;;;;;;;4.57;4.13;;;;;;;;;;6178384;28;20226;-76
2022/07/01 02:28:35;;;;;;;4.60;4.13;;;;;;;;;;6173526;28;20226;-76
2022/07/01 02:31:56;;;;;;;4.90;4.50;;;;;;;;;;6171963;28;20234;-75
2022/07/01 02:35:17;;;;;;;4.95;4.32;;;;;;;;;;6170966;28;20968;-75
2022/07/01 02:38:37;;;;;;;4.78;4.20;;;;;;;;;;6177879;28;20257;-75
2022/07/01 02:45:37;;;;;;;5.50;4.50;;;;;;;;;;6169371;28;20229;-74
2022/07/01 02:48:58;;;;;;;7.50;5.68;;;;;;;;;;6170759;28;20226;-74
2022/07/01 02:52:19;;;;;;;6.63;5.82;;;;;;;;;;6173020;28;20319;-75
2022/07/01 02:55:39;;;;;;;5.15;4.63;;;;;;;;;;6172664;28;20480;-74
2022/07/01 02:59:00;;;;;;;6.63;6.00;;;;;;;;;;6173874;28;20230;-73
2022/07/01 03:02:22;;;;;;;7.38;6.40;;;;;;;;;;6171436;28;20560;-74
2022/07/01 03:05:44;;;;;;;11.95;10.20;;;;;;;;;;6174709;28;20312;-75
2022/07/01 03:09:04;;;;;;;11.00;9.70;;;;;;;;;;6173947;28;20242;-74
2022/07/01 03:12:25;;;;;;;11.32;10.00;;;;;;;;;;6170366;28;20226;-75
2022/07/01 03:15:48;;;;;;;10.93;9.57;;;;;;;;;;6172243;28;20234;-73
2022/07/01 03:19:10;;;;;;;11.23;10.20;;;;;;;;;;6167881;28;20321;-73
2022/07/01 03:22:31;;;;;;;8.80;7.30;;;;;;;;;;6172508;28;20231;-73
2022/07/01 03:25:52;;;;;;;6.88;6.28;;;;;;;;;;6171764;28;20814;-73
2022/07/01 03:29:12;;;;;;;6.88;4.95;;;;;;;;;;6172246;28;20253;-74
2022/07/01 03:32:33;;;;;;;7.90;7.20;;;;;;;;;;6158710;28;20287;-74
2022/07/01 03:35:55;;;;;;;9.95;9.15;;;;;;;;;;6169482;28;20229;-74
2022/07/01 03:39:16;;;;;;;10.90;9.93;;;;;;;;;;6174779;28;20234;-75
2022/07/01 03:42:37;;;;;;;12.05;11.10;;;;;;;;;;6172609;28;20626;-75
2022/07/01 03:45:58;;;;;;;13.75;12.63;;;;;;;;;;6170615;28;20237;-74
2022/07/01 03:49:18;;;;;;;12.23;11.32;;;;;;;;;;6175517;28;20325;-74
2022/07/01 03:52:40;;;;;;;11.05;10.15;;;;;;;;;;6176658;28;20238;-74
2022/07/01 03:56:00;;;;;;;10.02;9.23;;;;;;;;;;6171962;28;20226;-74
2022/07/01 03:59:21;;;;;;;8.45;7.75;;;;;;;;;;6172888;28;20226;-74
2022/07/01 04:02:42;;;;;;;8.20;7.47;;;;;;;;;;6169580;28;20226;-74
2022/07/01 04:06:02;;;;;;;8.82;7.85;;;;;;;;;;6171266;28;20223;-74
2022/07/01 04:09:25;;;;;;;8.07;7.28;;;;;;;;;;6174144;28;21005;-73
2022/07/01 04:12:45;;;;;;;7.88;7.20;;;;;;;;;;6172085;28;20316;-72
2022/07/01 04:16:06;;;;;;;8.20;7.35;;;;;;;;;;6167650;28;20234;-74
2022/07/01 04:19:27;;;;;;;6.68;6.07;;;;;;;;;;6174000;28;20316;-73
2022/07/01 04:22:46;;;;;;;7.45;6.75;;;;;;;;;;6171135;28;20242;-73
2022/07/01 04:26:08;;;;;;;6.88;6.03;;;;;;;;;;6171771;28;20230;-73
2022/07/01 04:29:30;;;;;;;6.75;6.22;;;;;;;;;;6173963;28;20257;-73
2022/07/01 04:32:50;;;;;;;7.45;6.85;;;;;;;;;;6170137;28;20241;-73
2022/07/01 04:36:11;;;;;;;5.70;5.30;;;;;;;;;;6168636;28;20250;-73
2022/07/01 04:39:31;;;;;;;6.72;6.18;;;;;;;;;;6169767;28;20626;-73
2022/07/01 04:42:54;;;;;;;5.88;5.38;;;;;;;;;;6169924;28;20242;-74
2022/07/01 04:46:14;;;;;;;5.38;4.97;;;;;;;;;;6170543;28;20229;-73
2022/07/01 04:49:35;;;;;;;4.97;4.57;;;;;;;;;;6171160;28;20469;-73
2022/07/01 04:52:56;;;;;;;4.55;4.25;;;;;;;;;;6176324;28;20756;-73
2022/07/01 04:56:16;;;;;;;6.65;6.05;;;;;;;;;;6170901;28;20221;-73
2022/07/01 04:59:38;;;;;;;7.38;6.55;;;;;;;;;;6172852;28;20225;-73
2022/07/01 05:02:59;;;;;;;9.23;6.93;;;;;;;;;;6161640;28;20249;-72
2022/07/01 05:06:20;;;;;;;7.15;6.45;;;;;;;;;;6163734;28;20222;-73
2022/07/01 05:09:40;;;;;;;6.90;5.05;;;;;;;;;;6171600;28;20543;-72
2022/07/01 05:13:01;;;;;;;7.55;5.68;;;;;;;;;;6161981;28;20332;-74
2022/07/01 05:16:23;;;;;;;8.05;5.80;;;;;;;;;;6168494;28;20221;-72
2022/07/01 05:23:22;;;;;;;8.10;6.72;;;;;;;;;;6169281;28;20237;-72
2022/07/01 05:26:42;;;;;;;10.95;6.90;;;;;;;;;;6168702;28;20214;-72
2022/07/01 05:30:03;;;;;;;8.88;5.40;;;;;;;;;;6171045;28;20800;-73
2022/07/01 05:33:26;;;;;;;5.93;3.92;;;;;;;;;;6170781;28;20233;-71
2022/07/01 05:36:47;;;;;;;5.70;3.78;;;;;;;;;;6169427;28;20230;-73
2022/07/01 05:40:08;;;;;;;7.20;4.10;;;;;;;;;;6170320;28;20233;-67
2022/07/01 05:43:29;;;;;;;6.22;3.45;;;;;;;;;;6167406;28;20326;-73
2022/07/01 05:46:49;;;;;;;6.18;3.47;;;;;;;;;;6165028;28;20237;-74
2022/07/01 05:50:11;;;;;;;4.07;3.05;;;;;;;;;;6171500;28;20607;-73
2022/07/01 05:53:32;;;;;;;4.47;3.13;;;;;;;;;;6178729;28;20230;-72
2022/07/01 05:56:52;;;;;;;2.78;2.40;;;;;;;;;;6167718;28;20236;-72
2022/07/01 06:00:13;;;;;;;4.13;2.20;;;;;;;;;;6164139;28;20226;-73
2022/07/01 06:03:34;;;;;;;3.15;1.90;;;;;;;;;;6168510;28;20246;-74
2022/07/01 06:06:56;;;;;;;3.05;1.33;;;;;;;;;;6172593;28;20779;-71
2022/07/01 06:10:16;;;;;;;6.90;2.47;;;;;;;;;;6173438;28;20826;-74
2022/07/01 06:13:37;;;;;;;4.22;2.47;;;;;;;;;;6171187;28;20364;-71
2022/07/01 06:16:58;;;;;;;4.18;1.63;;;;;;;;;;6175106;28;20234;-74
2022/07/01 06:20:19;;;;;;;8.38;2.28;;;;;;;;;;6174450;28;20246;-76
2022/07/01 06:23:40;;;;;;;3.03;1.70;;;;;;;;;;6173423;28;20234;-76
2022/07/01 06:27:01;;;;;;;2.60;1.40;;;;;;;;;;6181437;28;20238;-74
2022/07/01 06:30:22;;;;;;;4.00;2.00;;;;;;;;;;6177896;28;20222;-75
2022/07/01 06:33:43;;;;;;;5.40;2.42;;;;;;;;;;6174390;28;20233;-72
2022/07/01 06:37:04;;;;;;;2.83;1.75;;;;;;;;;;6178242;28;20320;-77
2022/07/01 06:40:26;;;;;;;4.57;2.97;;;;;;;;;;6169864;28;20233;-75
2022/07/01 06:43:46;;;;;;;4.05;1.98;;;;;;;;;;6166297;28;20222;-74
2022/07/01 06:47:07;;;;;;;2.50;1.75;;;;;;;;;;6149904;28;20233;-73
2022/07/01 06:50:28;;;;;;;2.72;2.20;;;;;;;;;;6161579;28;20226;-72
2022/07/01 06:53:49;;;;;;;2.83;2.00;;;;;;;;;;6154126;28;20238;-72
2022/07/01 06:57:11;;;;;;;1.92;1.73;;;;;;;;;;6141290;28;21997;-74
2022/07/01 07:00:32;;;;;;;5.13;3.42;;;;;;;;;;6162343;28;20343;-83
2022/07/01 07:03:53;;;;;;;2.83;1.90;;;;;;;;;;6166016;28;20249;-76
2022/07/01 07:07:13;;;;;;;3.50;2.10;;;;;;;;;;6160247;28;20234;-81
2022/07/01 07:10:34;;;;;;;3.50;2.50;;;;;;;;;;6159463;28;20238;-77
2022/07/01 07:13:56;;;;;;;2.58;1.85;;;;;;;;;;6169413;28;20502;-81
2022/07/01 07:17:17;;;;;;;3.30;1.50;;;;;;;;;;6174065;28;20320;-83
2022/07/01 07:20:37;;;;;;;7.28;2.80;;;;;;;;;;6190172;28;20229;-78
2022/07/01 07:23:58;;;;;;;3.70;2.25;;;;;;;;;;6178182;28;20230;-75
2022/07/01 07:27:18;;;;;;;2.20;1.73;;;;;;;;;;6175439;28;20249;-79
2022/07/01 07:30:40;;;;;;;3.42;1.85;;;;;;;;;;6177415;28;20233;-78
2022/07/01 07:34:01;;;;;;;2.78;1.55;;;;;;;;;;6170577;28;20245;-79
2022/07/01 07:37:21;;;;;;;3.20;1.63;;;;;;;;;;6169438;28;20456;-80
2022/07/01 07:40:42;;;;;;;2.03;1.63;;;;;;;;;;6180514;28;20221;-79
2022/07/01 07:44:03;;;;;;;1.38;1.20;;;;;;;;;;6173274;28;20230;-74
2022/07/01 07:47:25;;;;;;;2.05;1.30;;;;;;;;;;6173662;28;20233;-75
2022/07/01 07:50:47;;;;;;;3.55;1.67;;;;;;;;;;6173510;28;20226;-72
2022/07/01 07:54:08;;;;;;;4.18;1.70;;;;;;;;;;6165784;28;20317;-72
2022/07/01 07:57:29;;;;;;;2.78;1.60;;;;;;;;;;6176602;28;20591;-72
2022/07/01 08:00:49;;;;;;;1.80;1.70;;;;;;;;;;6178594;28;20229;-76
2022/07/01 08:04:11;;;;;;;3.08;1.42;;;;;;;;;;6166801;28;20253;-77
2022/07/01 08:07:35;;;;;;;1.80;1.65;;;;;;;;;;6168831;28;20222;-75
2022/07/01 08:10:55;;;;;;;1.73;1.40;;;;;;;;;;6171486;28;21530;-74
2022/07/01 08:14:16;;;;;;;1.83;1.48;;;;;;;;;;6167706;28;20234;-74
2022/07/01 08:17:37;;;;;;;3.95;1.85;;;;;;;;;;6155807;28;20261;-72
2022/07/01 08:20:59;;;;;;;1.98;1.75;;;;;;;;;;6173710;28;20238;-76
2022/07/01 08:24:19;;;;;;;4.80;2.38;;;;;;;;;;6177939;28;20624;-74
2022/07/01 08:27:40;;;;;;;2.42;1.80;;;;;;;;;;6168653;28;20218;-72
2022/07/01 08:31:00;;;;;;;1.92;1.65;;;;;;;;;;6177707;28;20324;-73
2022/07/01 08:34:21;;;;;;;1.55;1.27;;;;;;;;;;6171164;28;20248;-76
2022/07/01 08:37:43;;;;;;;3.78;1.90;;;;;;;;;;6175483;28;20229;-72
2022/07/01 08:41:04;;;;;;;3.15;2.08;;;;;;;;;;6179458;28;20596;-71
2022/07/01 08:44:26;;;;;;;2.65;2.20;;;;;;;;;;6178911;28;20241;-75
2022/07/01 08:47:50;;;;;;;1.77;1.65;;;;;;;;;;6172086;28;20492;-74
2022/07/01 08:51:11;;;;;;;2.28;1.88;;;;;;;;;;6170033;28;20356;-73
2022/07/01 08:54:33;;;;;;;3.28;1.85;;;;;;;;;;6175198;28;20260;-66
2022/07/01 08:57:53;;;;;;;3.33;2.08;;;;;;;;;;6166883;28;21802;-66
2022/07/01 09:01:15;;;;;;;6.25;1.60;;;;;;;;;;6172254;28;20316;-71
2022/07/01 09:04:35;;;;;;;1.65;1.55;;;;;;;;;;6167432;28;21963;-70
2022/07/01 09:07:57;;;;;;;2.80;2.08;;;;;;;;;;6175005;28;20696;-69
2022/07/01 09:11:20;;;;;;;3.03;1.55;;;;;;;;;;6173539;28;20237;-70
2022/07/01 09:14:42;;;;;;;2.15;2.05;;;;;;;;;;6174619;28;20721;-71
2022/07/01 09:18:07;;;;;;;2.70;1.92;;;;;;;;;;6179270;28;20233;-72
2022/07/01 09:21:28;;;;;;;2.03;1.92;;;;;;;;;;6178719;28;20234;-69
2022/07/01 09:24:48;;;;;;;2.45;2.25;;;;;;;;;;6177839;28;20234;-70
2022/07/01 09:28:13;;;;;;;2.17;1.90;;;;;;;;;;6180300;28;20242;-71
2022/07/01 09:31:34;;;;;;;2.85;2.15;;;;;;;;;;6185449;28;20880;-70
2022/07/01 09:34:55;;;;;;;2.38;1.65;;;;;;;;;;6180156;28;20337;-70
2022/07/01 09:38:17;;;;;;;1.70;1.60;;;;;;;;;;6179571;28;20233;-73
2022/07/01 09:41:37;;;;;;;1.77;1.67;;;;;;;;;;6179996;28;20233;-72
2022/07/01 09:45:02;;;;;;;4.18;2.95;;;;;;;;;;6180460;28;20226;-71
2022/07/01 09:48:23;;;;;;;3.00;2.75;;;;;;;;;;6166725;28;20230;-73
2022/07/01 09:51:44;;;;;;;1.63;1.52;;;;;;;;;;6172766;28;20229;-75
2022/07/01 09:55:05;;;;;;;4.85;1.50;;;;;;;;;;6181121;28;20226;-76
2022/07/01 09:58:26;;;;;;;2.90;2.63;;;;;;;;;;6172862;28;20325;-74
2022/07/01 10:01:48;;;;;;;2.00;1.88;;;;;;;;;;6179138;28;20528;-77
2022/07/01 10:05:10;;;;;;;2.00;1.90;;;;;;;;;;6178900;28;20234;-74
2022/07/01 10:08:40;;;;;;;4.07;2.40;;;;;;;;;;6181149;28;20229;-73
2022/07/01 10:12:05;;;;;;;3.10;2.20;;;;;;;;;;6178306;28;20616;-72
2022/07/01 10:15:27;;;;;;;2.33;2.10;;;;;;;;;;6177863;28;20534;-73
2022/07/01 10:18:48;;;;;;;2.75;1.83;;;;;;;;;;6173631;28;20874;-70
2022/07/01 10:22:25;;;;;;;2.20;2.00;;;;;;;;;;6181313;28;20226;-71
2022/07/01 10:25:46;;;;;;;1.98;1.88;;;;;;;;;;6179904;28;20235;-69
2022/07/01 10:29:26;;;;;;;3.40;2.50;;;;;;;;;;6179854;28;20234;-68
2022/07/01 10:32:48;;;;;;;4.25;2.17;;;;;;;;;;6179272;28;20246;-70
2022/07/01 10:36:11;;;;;;;3.40;2.30;;;;;;;;;;6174282;28;20585;-71
2022/07/01 10:39:50;;;;;;;4.68;2.50;;;;;;;;;;6179820;28;20233;-73
2022/07/01 10:43:11;;;;;;;3.15;2.85;;;;;;;;;;6164130;28;20241;-74
2022/07/01 10:46:40;;;;;;;4.22;2.70;;;;;;;;;;6194609;28;20225;-73
2022/07/01 10:50:04;;;;;;;3.13;2.92;;;;;;;;;;6179275;28;20229;-72
2022/07/01 10:53:31;;;;;;;3.60;2.90;;;;;;;;;;6180423;28;20231;-72
2022/07/01 10:56:52;;;;;;;3.58;3.28;;;;;;;;;;6175883;28;20242;-74
2022/07/01 11:00:31;;;;;;;3.10;2.80;;;;;;;;;;6175397;28;20229;-75
2022/07/01 11:03:52;;;;;;;8.48;3.75;;;;;;;;;;6173175;28;20328;-73
2022/07/01 11:07:12;;;;;;;3.45;3.15;;;;;;;;;;6177182;28;20302;-77
2022/07/01 11:10:34;;;;;;;4.40;4.03;;;;;;;;;;6169051;28;20795;-78
2022/07/01 11:13:57;;;;;;;4.07;3.78;;;;;;;;;;6164196;28;25991;-73
2022/07/01 11:17:17;;;;;;;6.82;3.80;;;;;;;;;;6175520;28;21153;-76
2022/07/01 11:20:38;;;;;;;4.95;4.05;;;;;;;;;;6166984;28;20229;-73
2022/07/01 11:23:59;;;;;;;4.70;4.35;;;;;;;;;;6172318;28;20234;-77
2022/07/01 11:27:21;;;;;;;2.45;2.30;;;;;;;;;;6173993;28;20249;-77
2022/07/01 11:30:42;;;;;;;5.35;4.38;;;;;;;;;;6168032;28;20273;-75
2022/07/01 11:34:04;;;;;;;5.75;5.25;;;;;;;;;;6171374;28;20579;-75
2022/07/01 11:41:06;;;;;;;5.30;4.80;;;;;;;;;;6165817;28;20234;-75
2022/07/01 11:44:33;;;;;;;5.00;4.13;;;;;;;;;;6169403;28;20241;-72
2022/07/01 11:47:54;;;;;;;5.80;5.25;;;;;;;;;;6167426;28;20231;-73
2022/07/01 11:51:15;;;;;;;5.35;4.85;;;;;;;;;;6175994;28;20922;-72
2022/07/01 11:54:36;;;;;;;4.25;3.92;;;;;;;;;;6174271;28;20238;-73
2022/07/01 11:57:58;;;;;;;4.68;4.28;;;;;;;;;;6174674;28;20238;-74
2022/07/01 12:01:28;;;;;;;5.63;5.13;;;;;;;;;;6166920;28;20229;-72
2022/07/01 12:04:49;;;;;;;6.03;4.45;;;;;;;;;;6174619;28;20252;-73
2022/07/01 12:08:09;;;;;;;7.45;5.68;;;;;;;;;;6164272;28;20452;-72
2022/07/01 12:11:30;;;;;;;4.95;4.45;;;;;;;;;;6164309;28;20230;-73
2022/07/01 12:14:52;;;;;;;4.93;4.43;;;;;;;;;;6170509;28;20257;-73
2022/07/01 12:18:15;;;;;;;4.32;3.92;;;;;;;;;;6164944;28;20941;-73
2022/07/01 12:21:47;;;;;;;4.70;3.97;;;;;;;;;;6172095;28;20230;-74
2022/07/01 12:25:10;;;;;;;5.88;4.82;;;;;;;;;;6168246;28;20874;-72
2022/07/01 12:28:31;;;;;;;5.75;4.82;;;;;;;;;;6172977;28;20222;-74
2022/07/01 12:31:55;;;;;;;4.70;4.35;;;;;;;;;;6174282;28;20659;-73
2022/07/01 12:35:36;;;;;;;4.22;3.92;;;;;;;;;;6177214;28;20246;-74
2022/07/01 12:39:00;;;;;;;6.00;5.38;;;;;;;;;;6171199;28;20237;-74
2022/07/01 12:42:21;;;;;;;4.30;3.40;;;;;;;;;;6177924;28;20225;-73
2022/07/01 12:45:42;;;;;;;4.30;3.90;;;;;;;;;;6165378;28;20226;-74
2022/07/01 12:49:03;;;;;;;5.47;4.85;;;;;;;;;;6179180;28;20225;-74
2022/07/01 12:52:25;;;;;;;4.13;3.55;;;;;;;;;;6177665;28;20237;-73
2022/07/01 12:55:46;;;;;;;5.18;3.60;;;;;;;;;;6187301;28;20968;-73
2022/07/01 12:59:06;;;;;;;4.25;3.60;;;;;;;;;;6179969;28;20237;-75
2022/07/01 13:02:28;;;;;;;6.97;3.90;;;;;;;;;;6179030;28;20233;-74
2022/07/01 13:05:48;;;;;;;5.68;3.47;;;;;;;;;;6170843;28;20368;-73
2022/07/01 13:09:10;;;;;;;5.55;3.97;;;;;;;;;;6181259;28;20229;-73
2022/07/01 13:12:31;;;;;;;6.10;3.88;;;;;;;;;;6182176;28;20715;-76
2022/07/01 13:15:51;;;;;;;4.20;3.03;;;;;;;;;;6173192;28;20690;-76
2022/07/01 13:19:12;;;;;;;3.50;3.22;;;;;;;;;;6175850;28;20233;-75
2022/07/01 13:22:33;;;;;;;2.85;2.65;;;;;;;;;;6182239;28;20287;-77
2022/07/01 13:25:55;;;;;;;2.83;2.50;;;;;;;;;;6178563;28;20233;-76
2022/07/01 13:29:16;;;;;;;3.90;3.60;;;;;;;;;;6176551;28;20234;-77
2022/07/01 13:32:36;;;;;;;2.70;2.50;;;;;;;;;;6176207;28;20233;-77
2022/07/01 13:35:58;;;;;;;7.18;4.40;;;;;;;;;;6167663;28;20229;-77
2022/07/01 13:39:18;;;;;;;4.38;2.80;;;;;;;;;;6167318;28;20237;-76
2022/07/01 13:42:40;;;;;;;2.97;2.67;;;;;;;;;;6174844;28;20233;-75
2022/07/01 13:46:01;;;;;;;4.63;3.28;;;;;;;;;;6170322;28;20237;-75
2022/07/01 13:49:21;;;;;;;5.18;2.80;;;;;;;;;;6175023;28;20234;-75
2022/07/01 13:52:42;;;;;;;2.88;2.28;;;;;;;;;;6179100;28;20233;-73
2022/07/01 13:56:02;;;;;;;3.28;2.60;;;;;;;;;;6173116;28;20246;-74
2022/07/01 13:59:24;;;;;;;4.40;2.90;;;;;;;;;;6185528;28;20309;-74
2022/07/01 14:02:45;;;;;;;3.17;2.45;;;;;;;;;;6169217;28;20237;-75
2022/07/01 14:06:05;;;;;;;3.50;2.47;;;;;;;;;;6163208;28;20798;-75
2022/07/01 14:09:26;;;;;;;2.97;2.53;;;;;;;;;;6172161;28;20229;-74
2022/07/01 14:12:47;;;;;;;7.03;3.42;;;;;;;;;;6162073;28;20446;-75
2022/07/01 14:16:09;;;;;;;3.28;2.97;;;;;;;;;;6164562;28;20230;-78
2022/07/01 14:19:29;;;;;;;4.18;2.75;;;;;;;;;;6144240;28;20535;-78
2022/07/01 14:22:50;;;;;;;3.05;2.60;;;;;;;;;;6147587;28;20240;-77
2022/07/01 14:26:10;;;;;;;3.92;3.63;;;;;;;;;;6153013;28;20238;-74
2022/07/01 14:29:31;;;;;;;3.60;3.13;;;;;;;;;;6159800;28;20256;-77
2022/07/01 14:32:53;;;;;;;4.45;3.60;;;;;;;;;;6171572;28;20234;-71
2022/07/01 14:36:14;;;;;;;3.00;2.80;;;;;;;;;;6171811;28;20230;-74
2022/07/01 14:39:35;;;;;;;3.75;3.45;;;;;;;;;;6159476;28;20234;-73
2022/07/01 14:42:56;;;;;;;3.67;3.38;;;;;;;;;;6175845;28;20496;-69
2022/07/01 14:46:16;;;;;;;4.50;3.80;;;;;;;;;;6177692;28;20242;-77
2022/07/01 14:49:38;;;;;;;3.83;3.03;;;;;;;;;;6170149;28;20234;-77
2022/07/01 14:52:59;;;;;;;4.07;3.50;;;;;;;;;;6179892;28;20245;-79
2022/07/01 14:56:20;;;;;;;4.65;3.25;;;;;;;;;;6174950;28;20229;-78
2022/07/01 14:59:40;;;;;;;5.07;3.67;;;;;;;;;;6169842;28;20356;-76
2022/07/01 15:03:01;;;;;;;4.10;3.65;;;;;;;;;;6175752;28;20345;-78
2022/07/01 15:06:23;;;;;;;5.20;4.25;;;;;;;;;;6167887;28;20286;-77
2022/07/01 15:09:44;;;;;;;5.50;4.35;;;;;;;;;;6173238;28;20762;-75
2022/07/01 15:13:04;;;;;;;5.88;4.60;;;;;;;;;;6180895;28;20242;-77
2022/07/01 15:16:25;;;;;;;5.88;5.15;;;;;;;;;;6182054;28;20225;-76
2022/07/01 15:19:46;;;;;;;6.50;5.47;;;;;;;;;;6175227;28;20744;-75
2022/07/01 15:23:08;;;;;;;4.78;4.22;;;;;;;;;;6171078;28;20234;-75
2022/07/01 15:26:29;;;;;;;5.70;5.28;;;;;;;;;;6171416;28;20238;-75
2022/07/01 15:29:49;;;;;;;4.57;4.22;;;;;;;;;;6175071;28;20225;-80
2022/07/01 15:33:10;;;;;;;5.97;4.65;;;;;;;;;;6180625;28;20248;-79
2022/07/01 15:36:31;;;;;;;6.28;5.47;;;;;;;;;;6181267;28;20238;-78
2022/07/01 15:39:53;;;;;;;10.07;6.55;;;;;;;;;;6183852;28;20972;-78
2022/07/01 15:43:14;;;;;;;15.40;5.88;;;;;;;;;;6156450;28;20245;-73
2022/07/01 15:46:35;;;;;;;7.40;6.47;;;;;;;;;;6175362;28;20222;-73
2022/07/01 15:49:56;;;;;;;7.70;5.97;;;;;;;;;;6172393;28;20234;-73
2022/07/01 15:53:17;;;;;;;5.43;4.93;;;;;;;;;;6175485;28;20548;-76
2022/07/01 15:56:39;;;;;;;5.55;4.70;;;;;;;;;;6171046;28;20233;-73
2022/07/01 16:00:00;;;;;;;6.80;6.30;;;;;;;;;;6173371;28;20260;-73
2022/07/01 16:03:21;;;;;;;8.60;5.72;;;;;;;;;;6172177;28;20321;-73
2022/07/01 16:06:44;;;;;;;8.55;7.72;;;;;;;;;;6174317;28;20229;-74
2022/07/01 16:10:06;;;;;;;5.28;4.88;;;;;;;;;;6170287;28;20242;-71
2022/07/01 16:13:29;;;;;;;7.63;6.90;;;;;;;;;;6178396;28;20360;-73
2022/07/01 16:16:50;;;;;;;6.35;4.60;;;;;;;;;;6175564;28;20226;-73
2022/07/01 16:20:11;;;;;;;6.78;6.18;;;;;;;;;;6176460;28;20229;-72
2022/07/01 16:23:33;;;;;;;7.53;6.85;;;;;;;;;;6181241;28;20229;-73
2022/07/01 16:26:55;;;;;;;6.78;6.18;;;;;;;;;;6170290;28;20253;-73
2022/07/01 16:30:18;;;;;;;5.50;4.97;;;;;;;;;;6174036;28;20241;-73
2022/07/01 16:33:38;;;;;;;6.13;5.63;;;;;;;;;;6175171;28;20234;-72
2022/07/01 16:36:59;;;;;;;6.22;4.95;;;;;;;;;;6177591;28;20736;-73
2022/07/01 16:40:25;;;;;;;6.82;6.32;;;;;;;;;;6163446;28;20237;-73
2022/07/01 16:43:46;;;;;;;7.57;6.97;;;;;;;;;;6176412;28;20293;-72
2022/07/01 16:47:09;;;;;;;7.25;6.65;;;;;;;;;;6174001;28;20483;-73
2022/07/01 16:50:31;;;;;;;6.03;5.05;;;;;;;;;;6174677;28;20241;-73
2022/07/01 16:53:52;;;;;;;6.25;5.65;;;;;;;;;;6173426;28;20238;-73
2022/07/01 16:57:13;;;;;;;9.05;5.90;;;;;;;;;;6161626;28;20257;-73
2022/07/01 17:00:34;;;;;;;7.60;6.90;;;;;;;;;;6160770;28;20607;-73
2022/07/01 17:03:57;;;;;;;6.75;5.90;;;;;;;;;;6167676;28;20345;-72
2022/07/01 17:07:18;;;;;;;7.32;6.32;;;;;;;;;;6175909;28;20233;-73
2022/07/01 17:10:39;;;;;;;7.65;5.68;;;;;;;;;;6171962;28;20230;-73
2022/07/01 17:14:00;;;;;;;4.55;4.15;;;;;;;;;;6176165;28;20237;-74
2022/07/01 17:17:21;;;;;;;5.78;5.28;;;;;;;;;;6165971;28;20886;-75
2022/07/01 17:20:44;;;;;;;7.88;5.57;;;;;;;;;;6176595;28;20221;-74
2022/07/01 17:24:05;;;;;;;7.97;6.68;;;;;;;;;;6169715;28;20496;-75
2022/07/01 17:27:30;;;;;;;7.88;5.72;;;;;;;;;;6170569;28;20851;-76
2022/07/01 17:30:53;;;;;;;6.93;5.75;;;;;;;;;;6172659;28;20813;-75
2022/07/01 17:34:15;;;;;;;8.13;7.43;;;;;;;;;;6169822;28;20230;-73
2022/07/01 17:37:38;;;;;;;7.75;7.00;;;;;;;;;;6174686;28;20360;-76
2022/07/01 17:41:01;;;;;;;7.85;7.22;;;;;;;;;;6159516;28;20234;-77
2022/07/01 17:44:22;;;;;;;7.88;7.13;;;;;;;;;;6174990;28;20344;-74
2022/07/01 17:47:43;;;;;;;7.68;6.85;;;;;;;;;;6176665;28;20616;-74
2022/07/01 17:51:04;;;;;;;7.95;7.25;;;;;;;;;;6184093;28;20230;-74
2022/07/01 17:54:26;;;;;;;11.02;8.63;;;;;;;;;;6177928;28;20226;-74
2022/07/01 17:57:47;;;;;;;7.50;6.78;;;;;;;;;;6172491;28;20338;-73
2022/07/01 18:01:10;;;;;;;8.23;6.50;;;;;;;;;;6190294;28;20233;-76
2022/07/01 18:04:30;;;;;;;7.13;6.20;;;;;;;;;;6186183;28;20237;-75
2022/07/01 18:07:51;;;;;;;11.25;7.00;;;;;;;;;;6182955;28;20237;-77
2022/07/01 18:11:16;;;;;;;8.02;7.28;;;;;;;;;;6184797;28;20607;-75
2022/07/01 18:14:40;;;;;;;7.45;6.63;;;;;;;;;;6183332;28;20230;-76
2022/07/01 18:18:02;;;;;;;8.88;5.70;;;;;;;;;;6187117;28;20647;-75
2022/07/01 18:21:24;;;;;;;7.00;5.18;;;;;;;;;;6183005;28;20798;-74
2022/07/01 18:24:47;;;;;;;7.75;6.88;;;;;;;;;;6182034;28;20233;-75
2022/07/01 18:28:11;;;;;;;7.45;6.85;;;;;;;;;;6184484;28;20272;-75
2022/07/01 18:31:33;;;;;;;20.58;18.40;;;;;;;;;;6183883;28;20250;-75
2022/07/01 18:34:59;;;;;;;10.38;9.32;;;;;;;;;;6183918;28;20666;-73
2022/07/01 18:38:20;;;;;;;6.25;4.95;;;;;;;;;;6184220;28;20225;-75
2022/07/01 18:41:40;;;;;;;7.55;6.75;;;;;;;;;;6191623;28;20226;-74
2022/07/01 18:45:03;;;;;;;10.43;7.50;;;;;;;;;;6181261;28;20328;-75
2022/07/01 18:48:24;;;;;;;15.48;13.95;;;;;;;;;;6181212;28;20234;-74
2022/07/01 18:51:45;;;;;;;10.63;8.88;;;;;;;;;;6172814;28;20226;-79
2022/07/01 18:55:06;;;;;;;4.18;3.78;;;;;;;;;;6171224;28;20811;-75
2022/07/01 18:58:27;;;;;;;6.30;4.32;;;;;;;;;;6180854;28;20249;-74
2022/07/01 19:01:50;;;;;;;9.50;7.57;;;;;;;;;;6177597;28;20238;-75
2022/07/01 19:05:11;;;;;;;3.47;2.90;;;;;;;;;;6186110;28;20491;-73
2022/07/01 19:08:32;;;;;;;5.05;3.55;;;;;;;;;;6183876;28;20673;-74
2022/07/01 19:11:52;;;;;;;5.72;3.88;;;;;;;;;;6183499;28;20532;-75
2022/07/01 19:15:13;;;;;;;7.88;5.93;;;;;;;;;;6191328;28;20225;-74
2022/07/01 19:18:35;;;;;;;5.32;4.78;;;;;;;;;;6187444;28;20234;-75
2022/07/01 19:21:56;;;;;;;5.47;4.88;;;;;;;;;;6184244;28;20815;-75
2022/07/01 19:25:16;;;;;;;5.32;4.80;;;;;;;;;;6184087;28;20218;-75
2022/07/01 19:28:37;;;;;;;13.05;11.65;;;;;;;;;;6180829;28;20256;-73
2022/07/01 19:31:58;;;;;;;9.07;8.18;;;;;;;;;;6181194;28;20234;-75
2022/07/01 19:35:20;;;;;;;12.73;9.70;;;;;;;;;;6176764;28;20230;-76
2022/07/01 19:38:40;;;;;;;10.23;9.18;;;;;;;;;;6175123;28;20322;-76
2022/07/01 19:42:01;;;;;;;8.48;5.93;;;;;;;;;;6175313;28;20282;-74
2022/07/01 19:45:21;;;;;;;6.90;5.50;;;;;;;;;;6176499;28;20233;-75
2022/07/01 19:48:42;;;;;;;4.57;4.18;;;;;;;;;;6176978;28;20238;-74
2022/07/01 19:52:05;;;;;;;6.97;3.55;;;;;;;;;;6181334;28;20233;-74
2022/07/01 19:55:25;;;;;;;5.30;4.03;;;;;;;;;;6179962;28;20233;-75
2022/07/01 19:58:46;;;;;;;19.92;18.00;;;;;;;;;;6179355;28;20344;-76
2022/07/01 20:02:06;;;;;;;77.07;69.40;;;;;;;;;;6181205;28;20655;-75
2022/07/01 20:05:27;;;;;;;32.83;29.40;;;;;;;;;;6177960;28;20709;-74
2022/07/01 20:08:49;;;;;;;17.58;15.57;;;;;;;;;;6181302;28;20234;-74
2022/07/01 20:12:10;;;;;;;15.23;13.50;;;;;;;;;;6183402;28;20234;-75
2022/07/01 20:15:33;;;;;;;9.35;7.75;;;;;;;;;;6183965;28;20257;-76